sensor_id;sensor_type;location;lat;lon;timestamp;P1;durP1;ratioP1;P2;durP2;ratioP2
57667;SDS011;43499;52.366;12.912;2022-12-19T00:01:04;27.80;;;11.00;;
57667;SDS011;43499;52.366;12.912;2022-12-19T00:02:08;19.13;;;9.75;;
57667;SDS011;43499;52.366;12.912;2022-12-19T00:03:09;39.72;;;13.98;;
57667;SDS011;43499;52.366;12.912;2022-12-19T00:04:10;35.35;;;11.65;;
57667;SDS011;43499;52.366;12.912;2022-12-19T00:05:15;22.70;;;9.45;;
57667;SDS011;43499;52.366;12.912;2022-12-19T00:06:16;42.85;;;16.65;;
57667;SDS011;43499;52.366;12.912;2022-12-19T00:07:18;33.92;;;14.30;;
57667;SDS011;43499;52.366;12.912;2022-12-19T00:08:19;14.95;;;6.53;;
57667;SDS011;43499;52.366;12.912;2022-12-19T00:09:20;30.52;;;11.10;;
57667;SDS011;43499;52.366;12.912;2022-12-19T00:10:21;24.95;;;10.45;;
57667;SDS011;43499;52.366;12.912;2022-12-19T00:11:22;17.50;;;8.30;;
57667;SDS011;43499;52.366;12.912;2022-12-19T00:12:24;35.00;;;15.23;;
57667;SDS011;43499;52.366;12.912;2022-12-19T00:13:25;30.67;;;11.68;;
57667;SDS011;43499;52.366;12.912;2022-12-19T00:14:27;37.92;;;16.45;;
57667;SDS011;43499;52.366;12.912;2022-12-19T00:15:28;28.48;;;11.68;;
57667;SDS011;43499;52.366;12.912;2022-12-19T00:16:29;40.08;;;15.27;;
57667;SDS011;43499;52.366;12.912;2022-12-19T00:17:30;31.48;;;13.60;;
57667;SDS011;43499;52.366;12.912;2022-12-19T00:18:32;37.85;;;14.48;;
57667;SDS011;43499;52.366;12.912;2022-12-19T00:19:34;32.42;;;11.07;;
57667;SDS011;43499;52.366;12.912;2022-12-19T00:20:35;27.33;;;13.25;;
57667;SDS011;43499;52.366;12.912;2022-12-19T00:21:36;35.75;;;14.77;;
57667;SDS011;43499;52.366;12.912;2022-12-19T00:22:37;37.05;;;14.57;;
57667;SDS011;43499;52.366;12.912;2022-12-19T00:23:38;22.88;;;10.43;;
57667;SDS011;43499;52.366;12.912;2022-12-19T00:24:40;24.08;;;11.77;;
57667;SDS011;43499;52.366;12.912;2022-12-19T00:25:41;37.80;;;15.52;;
57667;SDS011;43499;52.366;12.912;2022-12-19T00:26:42;37.25;;;14.85;;
57667;SDS011;43499;52.366;12.912;2022-12-19T00:27:43;33.95;;;13.57;;
57667;SDS011;43499;52.366;12.912;2022-12-19T00:28:44;33.92;;;14.63;;
57667;SDS011;43499;52.366;12.912;2022-12-19T00:29:48;28.90;;;12.55;;
57667;SDS011;43499;52.366;12.912;2022-12-19T00:30:49;25.40;;;9.15;;
57667;SDS011;43499;52.366;12.912;2022-12-19T00:31:50;18.88;;;8.57;;
57667;SDS011;43499;52.366;12.912;2022-12-19T00:32:51;34.80;;;14.23;;
57667;SDS011;43499;52.366;12.912;2022-12-19T00:33:55;31.80;;;11.80;;
57667;SDS011;43499;52.366;12.912;2022-12-19T00:34:57;30.05;;;10.50;;
57667;SDS011;43499;52.366;12.912;2022-12-19T00:35:59;49.78;;;18.60;;
57667;SDS011;43499;52.366;12.912;2022-12-19T00:37:00;42.35;;;16.27;;
57667;SDS011;43499;52.366;12.912;2022-12-19T00:38:02;38.78;;;14.75;;
57667;SDS011;43499;52.366;12.912;2022-12-19T00:39:04;27.95;;;12.00;;
57667;SDS011;43499;52.366;12.912;2022-12-19T00:40:06;23.77;;;9.90;;
57667;SDS011;43499;52.366;12.912;2022-12-19T00:41:11;24.63;;;12.07;;
57667;SDS011;43499;52.366;12.912;2022-12-19T00:42:16;22.90;;;10.98;;
57667;SDS011;43499;52.366;12.912;2022-12-19T00:43:17;31.05;;;12.07;;
57667;SDS011;43499;52.366;12.912;2022-12-19T00:44:18;27.20;;;13.85;;
57667;SDS011;43499;52.366;12.912;2022-12-19T00:45:19;18.38;;;9.27;;
57667;SDS011;43499;52.366;12.912;2022-12-19T00:46:21;37.83;;;14.48;;
57667;SDS011;43499;52.366;12.912;2022-12-19T00:47:22;38.28;;;13.55;;
57667;SDS011;43499;52.366;12.912;2022-12-19T00:48:23;24.92;;;11.43;;
57667;SDS011;43499;52.366;12.912;2022-12-19T00:49:24;28.50;;;11.48;;
57667;SDS011;43499;52.366;12.912;2022-12-19T00:50:25;35.63;;;14.63;;
57667;SDS011;43499;52.366;12.912;2022-12-19T00:51:27;40.85;;;14.90;;
57667;SDS011;43499;52.366;12.912;2022-12-19T00:52:30;29.60;;;11.43;;
57667;SDS011;43499;52.366;12.912;2022-12-19T00:53:31;30.50;;;13.32;;
57667;SDS011;43499;52.366;12.912;2022-12-19T00:54:33;35.22;;;13.85;;
57667;SDS011;43499;52.366;12.912;2022-12-19T00:55:36;34.17;;;14.65;;
57667;SDS011;43499;52.366;12.912;2022-12-19T00:56:38;36.28;;;15.02;;
57667;SDS011;43499;52.366;12.912;2022-12-19T00:57:42;27.35;;;11.57;;
57667;SDS011;43499;52.366;12.912;2022-12-19T00:58:44;27.95;;;12.75;;
57667;SDS011;43499;52.366;12.912;2022-12-19T00:59:45;22.25;;;9.57;;
57667;SDS011;43499;52.366;12.912;2022-12-19T01:00:46;30.92;;;12.05;;
57667;SDS011;43499;52.366;12.912;2022-12-19T01:01:47;34.53;;;13.50;;
57667;SDS011;43499;52.366;12.912;2022-12-19T01:02:49;34.95;;;13.25;;
57667;SDS011;43499;52.366;12.912;2022-12-19T01:03:50;27.88;;;12.25;;
57667;SDS011;43499;52.366;12.912;2022-12-19T01:04:51;37.65;;;15.35;;
57667;SDS011;43499;52.366;12.912;2022-12-19T01:05:52;24.55;;;9.13;;
57667;SDS011;43499;52.366;12.912;2022-12-19T01:06:53;36.40;;;14.55;;
57667;SDS011;43499;52.366;12.912;2022-12-19T01:07:54;37.92;;;15.93;;
57667;SDS011;43499;52.366;12.912;2022-12-19T01:08:55;36.10;;;13.40;;
57667;SDS011;43499;52.366;12.912;2022-12-19T01:09:56;21.70;;;11.07;;
57667;SDS011;43499;52.366;12.912;2022-12-19T01:10:57;28.23;;;12.48;;
57667;SDS011;43499;52.366;12.912;2022-12-19T01:11:58;15.43;;;8.18;;
57667;SDS011;43499;52.366;12.912;2022-12-19T01:13:20;25.02;;;8.38;;
57667;SDS011;43499;52.366;12.912;2022-12-19T01:14:22;20.67;;;6.57;;
57667;SDS011;43499;52.366;12.912;2022-12-19T01:15:23;23.95;;;9.25;;
57667;SDS011;43499;52.366;12.912;2022-12-19T01:16:24;27.90;;;11.45;;
57667;SDS011;43499;52.366;12.912;2022-12-19T01:17:26;38.85;;;14.88;;
57667;SDS011;43499;52.366;12.912;2022-12-19T01:18:27;24.75;;;9.85;;
57667;SDS011;43499;52.366;12.912;2022-12-19T01:19:28;35.15;;;13.82;;
57667;SDS011;43499;52.366;12.912;2022-12-19T01:20:29;19.58;;;8.50;;
57667;SDS011;43499;52.366;12.912;2022-12-19T01:21:30;32.92;;;12.00;;
57667;SDS011;43499;52.366;12.912;2022-12-19T01:22:37;22.85;;;9.45;;
57667;SDS011;43499;52.366;12.912;2022-12-19T01:23:39;20.55;;;8.07;;
57667;SDS011;43499;52.366;12.912;2022-12-19T01:24:41;24.27;;;10.00;;
57667;SDS011;43499;52.366;12.912;2022-12-19T01:25:47;25.25;;;10.23;;
57667;SDS011;43499;52.366;12.912;2022-12-19T01:26:51;26.67;;;10.02;;
57667;SDS011;43499;52.366;12.912;2022-12-19T01:27:53;34.20;;;12.57;;
57667;SDS011;43499;52.366;12.912;2022-12-19T01:28:54;31.27;;;13.60;;
57667;SDS011;43499;52.366;12.912;2022-12-19T01:29:55;22.23;;;11.00;;
57667;SDS011;43499;52.366;12.912;2022-12-19T01:30:56;30.77;;;11.93;;
57667;SDS011;43499;52.366;12.912;2022-12-19T01:31:58;28.02;;;11.65;;
57667;SDS011;43499;52.366;12.912;2022-12-19T01:32:59;27.85;;;12.82;;
57667;SDS011;43499;52.366;12.912;2022-12-19T01:34:01;32.35;;;14.57;;
57667;SDS011;43499;52.366;12.912;2022-12-19T01:35:02;31.27;;;13.15;;
57667;SDS011;43499;52.366;12.912;2022-12-19T01:36:04;31.92;;;13.18;;
57667;SDS011;43499;52.366;12.912;2022-12-19T01:37:07;27.02;;;11.80;;
57667;SDS011;43499;52.366;12.912;2022-12-19T01:38:11;29.65;;;12.57;;
57667;SDS011;43499;52.366;12.912;2022-12-19T01:39:13;28.88;;;13.38;;
57667;SDS011;43499;52.366;12.912;2022-12-19T01:40:14;32.78;;;11.45;;
57667;SDS011;43499;52.366;12.912;2022-12-19T01:41:15;23.80;;;8.70;;
57667;SDS011;43499;52.366;12.912;2022-12-19T01:42:18;19.55;;;8.70;;
57667;SDS011;43499;52.366;12.912;2022-12-19T01:43:22;24.60;;;9.45;;
57667;SDS011;43499;52.366;12.912;2022-12-19T01:44:24;22.77;;;9.82;;
57667;SDS011;43499;52.366;12.912;2022-12-19T01:45:30;38.08;;;14.25;;
57667;SDS011;43499;52.366;12.912;2022-12-19T01:46:45;31.30;;;11.45;;
57667;SDS011;43499;52.366;12.912;2022-12-19T01:48:06;16.40;;;6.53;;
57667;SDS011;43499;52.366;12.912;2022-12-19T01:49:29;20.88;;;9.63;;
57667;SDS011;43499;52.366;12.912;2022-12-19T01:50:45;20.52;;;9.13;;
57667;SDS011;43499;52.366;12.912;2022-12-19T01:52:02;17.48;;;8.77;;
57667;SDS011;43499;52.366;12.912;2022-12-19T01:53:07;22.33;;;9.65;;
57667;SDS011;43499;52.366;12.912;2022-12-19T01:54:13;30.08;;;12.15;;
57667;SDS011;43499;52.366;12.912;2022-12-19T01:55:19;30.20;;;13.38;;
57667;SDS011;43499;52.366;12.912;2022-12-19T01:56:23;16.40;;;7.63;;
57667;SDS011;43499;52.366;12.912;2022-12-19T01:57:33;21.30;;;10.02;;
57667;SDS011;43499;52.366;12.912;2022-12-19T01:58:35;24.88;;;11.05;;
57667;SDS011;43499;52.366;12.912;2022-12-19T01:59:41;32.67;;;10.75;;
57667;SDS011;43499;52.366;12.912;2022-12-19T02:00:45;36.92;;;14.68;;
57667;SDS011;43499;52.366;12.912;2022-12-19T02:01:46;33.25;;;12.85;;
57667;SDS011;43499;52.366;12.912;2022-12-19T02:02:49;30.23;;;13.27;;
57667;SDS011;43499;52.366;12.912;2022-12-19T02:03:55;30.05;;;11.80;;
57667;SDS011;43499;52.366;12.912;2022-12-19T02:04:58;32.78;;;12.82;;
57667;SDS011;43499;52.366;12.912;2022-12-19T02:06:01;26.10;;;10.90;;
57667;SDS011;43499;52.366;12.912;2022-12-19T02:07:05;22.67;;;8.38;;
57667;SDS011;43499;52.366;12.912;2022-12-19T02:08:09;26.42;;;10.23;;
57667;SDS011;43499;52.366;12.912;2022-12-19T02:09:10;29.35;;;11.85;;
57667;SDS011;43499;52.366;12.912;2022-12-19T02:10:12;25.52;;;10.63;;
57667;SDS011;43499;52.366;12.912;2022-12-19T02:11:13;32.05;;;12.82;;
57667;SDS011;43499;52.366;12.912;2022-12-19T02:12:14;18.23;;;6.88;;
57667;SDS011;43499;52.366;12.912;2022-12-19T02:13:15;24.27;;;9.05;;
57667;SDS011;43499;52.366;12.912;2022-12-19T02:14:16;28.67;;;12.00;;
57667;SDS011;43499;52.366;12.912;2022-12-19T02:15:18;40.72;;;14.52;;
57667;SDS011;43499;52.366;12.912;2022-12-19T02:16:34;27.02;;;11.45;;
57667;SDS011;43499;52.366;12.912;2022-12-19T02:20:50;19.42;;;9.13;;
57667;SDS011;43499;52.366;12.912;2022-12-19T02:22:12;27.13;;;11.07;;
57667;SDS011;43499;52.366;12.912;2022-12-19T02:26:29;26.20;;;9.98;;
57667;SDS011;43499;52.366;12.912;2022-12-19T02:34:32;17.65;;;6.97;;
57667;SDS011;43499;52.366;12.912;2022-12-19T02:35:50;25.60;;;9.90;;
57667;SDS011;43499;52.366;12.912;2022-12-19T02:37:02;18.88;;;6.75;;
57667;SDS011;43499;52.366;12.912;2022-12-19T02:38:18;23.25;;;8.77;;
57667;SDS011;43499;52.366;12.912;2022-12-19T02:39:31;23.33;;;9.80;;
57667;SDS011;43499;52.366;12.912;2022-12-19T02:40:41;34.85;;;11.25;;
57667;SDS011;43499;52.366;12.912;2022-12-19T02:41:52;28.35;;;12.73;;
57667;SDS011;43499;52.366;12.912;2022-12-19T02:42:57;11.43;;;5.95;;
57667;SDS011;43499;52.366;12.912;2022-12-19T02:43:59;24.67;;;9.75;;
57667;SDS011;43499;52.366;12.912;2022-12-19T02:45:04;18.88;;;7.82;;
57667;SDS011;43499;52.366;12.912;2022-12-19T02:46:10;22.77;;;11.23;;
57667;SDS011;43499;52.366;12.912;2022-12-19T02:47:13;19.77;;;8.93;;
57667;SDS011;43499;52.366;12.912;2022-12-19T02:48:16;29.90;;;11.52;;
57667;SDS011;43499;52.366;12.912;2022-12-19T02:49:18;26.92;;;11.65;;
57667;SDS011;43499;52.366;12.912;2022-12-19T02:50:19;37.92;;;13.52;;
57667;SDS011;43499;52.366;12.912;2022-12-19T02:51:20;37.83;;;15.25;;
57667;SDS011;43499;52.366;12.912;2022-12-19T02:53:25;32.40;;;12.93;;
57667;SDS011;43499;52.366;12.912;2022-12-19T02:54:31;33.75;;;13.68;;
57667;SDS011;43499;52.366;12.912;2022-12-19T02:55:37;22.98;;;9.27;;
57667;SDS011;43499;52.366;12.912;2022-12-19T02:56:49;27.27;;;11.65;;
57667;SDS011;43499;52.366;12.912;2022-12-19T02:58:11;19.35;;;8.68;;
57667;SDS011;43499;52.366;12.912;2022-12-19T02:59:25;19.50;;;8.77;;
57667;SDS011;43499;52.366;12.912;2022-12-19T03:00:53;30.65;;;10.82;;
57667;SDS011;43499;52.366;12.912;2022-12-19T03:02:08;28.63;;;10.77;;
57667;SDS011;43499;52.366;12.912;2022-12-19T03:03:32;33.63;;;13.02;;
57667;SDS011;43499;52.366;12.912;2022-12-19T03:06:38;12.93;;;5.63;;
57667;SDS011;43499;52.366;12.912;2022-12-19T03:07:48;27.55;;;10.38;;
57667;SDS011;43499;52.366;12.912;2022-12-19T03:09:24;15.10;;;6.28;;
57667;SDS011;43499;52.366;12.912;2022-12-19T03:10:45;26.52;;;9.75;;
57667;SDS011;43499;52.366;12.912;2022-12-19T03:11:55;16.13;;;7.80;;
57667;SDS011;43499;52.366;12.912;2022-12-19T03:13:05;23.58;;;10.40;;
57667;SDS011;43499;52.366;12.912;2022-12-19T03:14:13;10.90;;;4.53;;
57667;SDS011;43499;52.366;12.912;2022-12-19T03:15:19;32.45;;;13.13;;
57667;SDS011;43499;52.366;12.912;2022-12-19T03:16:20;28.23;;;12.32;;
57667;SDS011;43499;52.366;12.912;2022-12-19T03:17:22;26.58;;;9.70;;
57667;SDS011;43499;52.366;12.912;2022-12-19T03:18:23;23.15;;;8.65;;
57667;SDS011;43499;52.366;12.912;2022-12-19T03:19:25;12.70;;;5.75;;
57667;SDS011;43499;52.366;12.912;2022-12-19T03:20:42;14.52;;;6.68;;
57667;SDS011;43499;52.366;12.912;2022-12-19T03:22:02;22.30;;;9.40;;
57667;SDS011;43499;52.366;12.912;2022-12-19T03:23:04;25.33;;;10.15;;
57667;SDS011;43499;52.366;12.912;2022-12-19T03:24:06;20.00;;;6.47;;
57667;SDS011;43499;52.366;12.912;2022-12-19T03:25:10;24.45;;;10.70;;
57667;SDS011;43499;52.366;12.912;2022-12-19T03:26:12;17.05;;;7.03;;
57667;SDS011;43499;52.366;12.912;2022-12-19T03:27:22;38.58;;;13.18;;
57667;SDS011;43499;52.366;12.912;2022-12-19T03:28:39;26.52;;;9.63;;
57667;SDS011;43499;52.366;12.912;2022-12-19T03:29:49;30.25;;;12.80;;
57667;SDS011;43499;52.366;12.912;2022-12-19T03:30:54;28.92;;;12.18;;
57667;SDS011;43499;52.366;12.912;2022-12-19T03:31:58;27.05;;;11.45;;
57667;SDS011;43499;52.366;12.912;2022-12-19T03:33:02;16.33;;;8.10;;
57667;SDS011;43499;52.366;12.912;2022-12-19T03:34:06;39.28;;;13.88;;
57667;SDS011;43499;52.366;12.912;2022-12-19T03:35:16;31.85;;;11.95;;
57667;SDS011;43499;52.366;12.912;2022-12-19T03:36:32;29.13;;;11.10;;
57667;SDS011;43499;52.366;12.912;2022-12-19T03:37:39;33.83;;;12.90;;
57667;SDS011;43499;52.366;12.912;2022-12-19T03:38:43;33.85;;;10.13;;
57667;SDS011;43499;52.366;12.912;2022-12-19T03:39:47;23.08;;;9.98;;
57667;SDS011;43499;52.366;12.912;2022-12-19T03:40:52;30.05;;;12.20;;
57667;SDS011;43499;52.366;12.912;2022-12-19T03:41:55;25.73;;;10.95;;
57667;SDS011;43499;52.366;12.912;2022-12-19T03:43:17;25.52;;;9.30;;
57667;SDS011;43499;52.366;12.912;2022-12-19T03:44:19;32.22;;;12.93;;
57667;SDS011;43499;52.366;12.912;2022-12-19T03:45:28;17.70;;;7.85;;
57667;SDS011;43499;52.366;12.912;2022-12-19T03:46:38;29.02;;;12.23;;
57667;SDS011;43499;52.366;12.912;2022-12-19T03:47:50;17.15;;;7.05;;
57667;SDS011;43499;52.366;12.912;2022-12-19T03:48:58;26.58;;;10.95;;
57667;SDS011;43499;52.366;12.912;2022-12-19T03:49:59;13.07;;;5.38;;
57667;SDS011;43499;52.366;12.912;2022-12-19T03:51:04;24.42;;;9.50;;
57667;SDS011;43499;52.366;12.912;2022-12-19T03:55:00;27.25;;;9.80;;
57667;SDS011;43499;52.366;12.912;2022-12-19T03:57:27;36.50;;;13.57;;
57667;SDS011;43499;52.366;12.912;2022-12-19T03:58:33;29.20;;;12.73;;
57667;SDS011;43499;52.366;12.912;2022-12-19T03:59:39;29.80;;;14.35;;
57667;SDS011;43499;52.366;12.912;2022-12-19T04:00:44;27.67;;;10.15;;
57667;SDS011;43499;52.366;12.912;2022-12-19T04:01:47;35.97;;;13.13;;
57667;SDS011;43499;52.366;12.912;2022-12-19T04:02:51;30.65;;;11.82;;
57667;SDS011;43499;52.366;12.912;2022-12-19T04:03:55;37.65;;;14.00;;
57667;SDS011;43499;52.366;12.912;2022-12-19T04:04:59;28.25;;;10.65;;
57667;SDS011;43499;52.366;12.912;2022-12-19T04:06:09;21.05;;;9.75;;
57667;SDS011;43499;52.366;12.912;2022-12-19T04:07:11;39.95;;;15.30;;
57667;SDS011;43499;52.366;12.912;2022-12-19T04:08:13;24.90;;;9.00;;
57667;SDS011;43499;52.366;12.912;2022-12-19T04:09:16;13.95;;;6.60;;
57667;SDS011;43499;52.366;12.912;2022-12-19T04:10:21;36.80;;;11.57;;
57667;SDS011;43499;52.366;12.912;2022-12-19T04:11:26;39.67;;;14.88;;
57667;SDS011;43499;52.366;12.912;2022-12-19T04:12:35;39.42;;;16.00;;
57667;SDS011;43499;52.366;12.912;2022-12-19T04:13:41;33.20;;;13.82;;
57667;SDS011;43499;52.366;12.912;2022-12-19T04:14:47;46.97;;;16.85;;
57667;SDS011;43499;52.366;12.912;2022-12-19T04:16:10;30.67;;;13.88;;
57667;SDS011;43499;52.366;12.912;2022-12-19T04:17:19;26.95;;;11.13;;
57667;SDS011;43499;52.366;12.912;2022-12-19T04:18:30;44.47;;;15.82;;
57667;SDS011;43499;52.366;12.912;2022-12-19T04:19:34;36.85;;;15.88;;
57667;SDS011;43499;52.366;12.912;2022-12-19T04:20:40;20.95;;;8.85;;
57667;SDS011;43499;52.366;12.912;2022-12-19T04:21:49;39.70;;;14.98;;
57667;SDS011;43499;52.366;12.912;2022-12-19T04:23:00;43.42;;;15.95;;
57667;SDS011;43499;52.366;12.912;2022-12-19T04:25:23;34.38;;;14.57;;
57667;SDS011;43499;52.366;12.912;2022-12-19T04:26:29;38.65;;;14.73;;
57667;SDS011;43499;52.366;12.912;2022-12-19T04:27:33;23.08;;;11.00;;
57667;SDS011;43499;52.366;12.912;2022-12-19T04:29:51;28.85;;;10.45;;
57667;SDS011;43499;52.366;12.912;2022-12-19T04:30:55;41.85;;;14.85;;
57667;SDS011;43499;52.366;12.912;2022-12-19T04:31:57;38.40;;;15.25;;
57667;SDS011;43499;52.366;12.912;2022-12-19T04:32:58;36.63;;;14.40;;
57667;SDS011;43499;52.366;12.912;2022-12-19T04:33:59;32.08;;;12.93;;
57667;SDS011;43499;52.366;12.912;2022-12-19T04:35:01;32.00;;;12.55;;
57667;SDS011;43499;52.366;12.912;2022-12-19T04:36:02;50.38;;;15.98;;
57667;SDS011;43499;52.366;12.912;2022-12-19T04:37:03;53.85;;;18.67;;
57667;SDS011;43499;52.366;12.912;2022-12-19T04:38:05;41.45;;;18.20;;
57667;SDS011;43499;52.366;12.912;2022-12-19T04:39:06;37.88;;;17.35;;
57667;SDS011;43499;52.366;12.912;2022-12-19T04:40:07;22.75;;;9.45;;
57667;SDS011;43499;52.366;12.912;2022-12-19T04:41:09;40.20;;;15.25;;
57667;SDS011;43499;52.366;12.912;2022-12-19T04:42:10;26.40;;;11.43;;
57667;SDS011;43499;52.366;12.912;2022-12-19T04:43:11;22.77;;;7.32;;
57667;SDS011;43499;52.366;12.912;2022-12-19T04:44:12;34.25;;;13.75;;
57667;SDS011;43499;52.366;12.912;2022-12-19T04:45:13;38.88;;;14.40;;
57667;SDS011;43499;52.366;12.912;2022-12-19T04:46:14;44.00;;;18.77;;
57667;SDS011;43499;52.366;12.912;2022-12-19T04:47:15;34.33;;;14.27;;
57667;SDS011;43499;52.366;12.912;2022-12-19T04:48:17;36.67;;;15.82;;
57667;SDS011;43499;52.366;12.912;2022-12-19T04:49:18;47.58;;;18.23;;
57667;SDS011;43499;52.366;12.912;2022-12-19T04:50:19;47.25;;;17.92;;
57667;SDS011;43499;52.366;12.912;2022-12-19T04:51:20;39.70;;;15.40;;
57667;SDS011;43499;52.366;12.912;2022-12-19T04:52:21;51.05;;;17.00;;
57667;SDS011;43499;52.366;12.912;2022-12-19T04:53:22;49.60;;;19.17;;
57667;SDS011;43499;52.366;12.912;2022-12-19T04:54:23;35.83;;;14.82;;
57667;SDS011;43499;52.366;12.912;2022-12-19T04:55:24;51.90;;;18.90;;
57667;SDS011;43499;52.366;12.912;2022-12-19T04:56:25;49.28;;;18.05;;
57667;SDS011;43499;52.366;12.912;2022-12-19T04:57:30;48.05;;;19.20;;
57667;SDS011;43499;52.366;12.912;2022-12-19T04:58:31;37.80;;;14.90;;
57667;SDS011;43499;52.366;12.912;2022-12-19T04:59:33;44.65;;;15.20;;
57667;SDS011;43499;52.366;12.912;2022-12-19T05:00:34;45.65;;;17.80;;
57667;SDS011;43499;52.366;12.912;2022-12-19T05:01:35;35.72;;;15.30;;
57667;SDS011;43499;52.366;12.912;2022-12-19T05:02:36;43.08;;;14.05;;
57667;SDS011;43499;52.366;12.912;2022-12-19T05:03:37;56.17;;;19.83;;
57667;SDS011;43499;52.366;12.912;2022-12-19T05:04:38;51.28;;;17.42;;
57667;SDS011;43499;52.366;12.912;2022-12-19T05:05:39;50.38;;;19.88;;
57667;SDS011;43499;52.366;12.912;2022-12-19T05:06:40;53.33;;;21.15;;
57667;SDS011;43499;52.366;12.912;2022-12-19T05:07:41;58.45;;;18.83;;
57667;SDS011;43499;52.366;12.912;2022-12-19T05:08:42;43.10;;;18.55;;
57667;SDS011;43499;52.366;12.912;2022-12-19T05:09:43;43.53;;;16.77;;
57667;SDS011;43499;52.366;12.912;2022-12-19T05:10:44;46.13;;;17.90;;
57667;SDS011;43499;52.366;12.912;2022-12-19T05:11:45;51.42;;;20.55;;
57667;SDS011;43499;52.366;12.912;2022-12-19T05:12:46;53.92;;;20.08;;
57667;SDS011;43499;52.366;12.912;2022-12-19T05:13:47;42.08;;;17.67;;
57667;SDS011;43499;52.366;12.912;2022-12-19T05:14:49;45.58;;;17.10;;
57667;SDS011;43499;52.366;12.912;2022-12-19T05:15:57;32.10;;;15.02;;
57667;SDS011;43499;52.366;12.912;2022-12-19T05:16:58;41.80;;;16.67;;
57667;SDS011;43499;52.366;12.912;2022-12-19T05:17:59;30.40;;;12.88;;
57667;SDS011;43499;52.366;12.912;2022-12-19T05:19:00;45.35;;;18.30;;
57667;SDS011;43499;52.366;12.912;2022-12-19T05:20:02;52.95;;;19.63;;
57667;SDS011;43499;52.366;12.912;2022-12-19T05:21:04;43.60;;;17.10;;
57667;SDS011;43499;52.366;12.912;2022-12-19T05:22:05;46.50;;;20.05;;
57667;SDS011;43499;52.366;12.912;2022-12-19T05:23:06;51.78;;;17.13;;
57667;SDS011;43499;52.366;12.912;2022-12-19T05:24:07;41.35;;;14.93;;
57667;SDS011;43499;52.366;12.912;2022-12-19T05:25:09;54.30;;;19.60;;
57667;SDS011;43499;52.366;12.912;2022-12-19T05:26:10;40.20;;;14.50;;
57667;SDS011;43499;52.366;12.912;2022-12-19T05:27:11;53.97;;;17.75;;
57667;SDS011;43499;52.366;12.912;2022-12-19T05:28:13;46.65;;;19.52;;
57667;SDS011;43499;52.366;12.912;2022-12-19T05:29:15;55.17;;;19.20;;
57667;SDS011;43499;52.366;12.912;2022-12-19T05:30:16;55.05;;;19.35;;
57667;SDS011;43499;52.366;12.912;2022-12-19T05:31:18;55.30;;;18.42;;
57667;SDS011;43499;52.366;12.912;2022-12-19T05:32:20;56.67;;;19.17;;
57667;SDS011;43499;52.366;12.912;2022-12-19T05:33:21;47.63;;;17.90;;
57667;SDS011;43499;52.366;12.912;2022-12-19T05:34:22;58.10;;;19.90;;
57667;SDS011;43499;52.366;12.912;2022-12-19T05:35:24;52.35;;;18.83;;
57667;SDS011;43499;52.366;12.912;2022-12-19T05:36:25;61.88;;;22.92;;
57667;SDS011;43499;52.366;12.912;2022-12-19T05:37:26;50.70;;;19.80;;
57667;SDS011;43499;52.366;12.912;2022-12-19T05:38:27;57.70;;;22.38;;
57667;SDS011;43499;52.366;12.912;2022-12-19T05:39:29;56.63;;;20.90;;
57667;SDS011;43499;52.366;12.912;2022-12-19T05:40:30;59.80;;;19.08;;
57667;SDS011;43499;52.366;12.912;2022-12-19T05:41:31;46.75;;;19.05;;
57667;SDS011;43499;52.366;12.912;2022-12-19T05:42:32;42.05;;;15.38;;
57667;SDS011;43499;52.366;12.912;2022-12-19T05:43:33;24.77;;;11.82;;
57667;SDS011;43499;52.366;12.912;2022-12-19T05:44:34;45.47;;;18.48;;
57667;SDS011;43499;52.366;12.912;2022-12-19T05:45:37;56.42;;;19.95;;
57667;SDS011;43499;52.366;12.912;2022-12-19T05:46:39;54.83;;;20.85;;
57667;SDS011;43499;52.366;12.912;2022-12-19T05:47:43;51.95;;;15.20;;
57667;SDS011;43499;52.366;12.912;2022-12-19T05:48:46;52.00;;;18.95;;
57667;SDS011;43499;52.366;12.912;2022-12-19T05:49:47;50.85;;;18.70;;
57667;SDS011;43499;52.366;12.912;2022-12-19T05:50:48;30.15;;;12.98;;
57667;SDS011;43499;52.366;12.912;2022-12-19T05:51:50;60.95;;;21.85;;
57667;SDS011;43499;52.366;12.912;2022-12-19T05:52:51;45.65;;;16.40;;
57667;SDS011;43499;52.366;12.912;2022-12-19T05:53:52;65.07;;;20.63;;
57667;SDS011;43499;52.366;12.912;2022-12-19T05:54:53;44.92;;;16.58;;
57667;SDS011;43499;52.366;12.912;2022-12-19T05:56:07;48.08;;;16.50;;
57667;SDS011;43499;52.366;12.912;2022-12-19T05:57:10;49.80;;;17.25;;
57667;SDS011;43499;52.366;12.912;2022-12-19T05:58:11;51.72;;;21.13;;
57667;SDS011;43499;52.366;12.912;2022-12-19T05:59:12;52.58;;;18.10;;
57667;SDS011;43499;52.366;12.912;2022-12-19T06:00:13;66.80;;;22.90;;
57667;SDS011;43499;52.366;12.912;2022-12-19T06:01:19;59.88;;;20.33;;
57667;SDS011;43499;52.366;12.912;2022-12-19T06:02:22;72.72;;;21.38;;
57667;SDS011;43499;52.366;12.912;2022-12-19T06:03:23;45.72;;;19.60;;
57667;SDS011;43499;52.366;12.912;2022-12-19T06:04:24;46.70;;;18.20;;
57667;SDS011;43499;52.366;12.912;2022-12-19T06:05:25;61.75;;;20.35;;
57667;SDS011;43499;52.366;12.912;2022-12-19T06:06:26;62.80;;;23.83;;
57667;SDS011;43499;52.366;12.912;2022-12-19T06:07:28;73.40;;;22.17;;
57667;SDS011;43499;52.366;12.912;2022-12-19T06:08:30;57.25;;;19.70;;
57667;SDS011;43499;52.366;12.912;2022-12-19T06:09:31;42.30;;;14.00;;
57667;SDS011;43499;52.366;12.912;2022-12-19T06:10:32;50.80;;;18.80;;
57667;SDS011;43499;52.366;12.912;2022-12-19T06:11:33;51.38;;;16.63;;
57667;SDS011;43499;52.366;12.912;2022-12-19T06:12:34;49.38;;;15.10;;
57667;SDS011;43499;52.366;12.912;2022-12-19T06:13:36;46.90;;;16.92;;
57667;SDS011;43499;52.366;12.912;2022-12-19T06:14:37;54.80;;;17.75;;
57667;SDS011;43499;52.366;12.912;2022-12-19T06:15:39;54.72;;;20.35;;
57667;SDS011;43499;52.366;12.912;2022-12-19T06:16:40;42.72;;;15.70;;
57667;SDS011;43499;52.366;12.912;2022-12-19T06:17:41;43.03;;;17.85;;
57667;SDS011;43499;52.366;12.912;2022-12-19T06:18:43;56.22;;;18.40;;
57667;SDS011;43499;52.366;12.912;2022-12-19T06:19:45;59.30;;;21.83;;
57667;SDS011;43499;52.366;12.912;2022-12-19T06:20:54;52.88;;;17.80;;
57667;SDS011;43499;52.366;12.912;2022-12-19T06:21:56;46.03;;;16.00;;
57667;SDS011;43499;52.366;12.912;2022-12-19T06:22:57;56.20;;;18.42;;
57667;SDS011;43499;52.366;12.912;2022-12-19T06:23:59;52.83;;;19.30;;
57667;SDS011;43499;52.366;12.912;2022-12-19T06:25:00;70.00;;;22.42;;
57667;SDS011;43499;52.366;12.912;2022-12-19T06:26:02;45.20;;;16.85;;
57667;SDS011;43499;52.366;12.912;2022-12-19T06:27:04;64.93;;;21.70;;
57667;SDS011;43499;52.366;12.912;2022-12-19T06:28:05;51.67;;;19.25;;
57667;SDS011;43499;52.366;12.912;2022-12-19T06:29:06;56.85;;;21.00;;
57667;SDS011;43499;52.366;12.912;2022-12-19T06:30:08;68.65;;;22.48;;
57667;SDS011;43499;52.366;12.912;2022-12-19T06:31:09;57.65;;;22.15;;
57667;SDS011;43499;52.366;12.912;2022-12-19T06:32:11;57.35;;;20.73;;
57667;SDS011;43499;52.366;12.912;2022-12-19T06:33:12;58.72;;;20.30;;